sensor_id;sensor_type;location;lat;lon;timestamp;pressure;altitude;pressure_sealevel;temperature;humidity
64844;BME280;51310;52.198;5.422;2022-10-31T00:01:01;101815.28;;;10.92;100.00
64844;BME280;51310;52.198;5.422;2022-10-31T00:03:27;101823.88;;;11.00;100.00
64844;BME280;51310;52.198;5.422;2022-10-31T00:05:53;101819.63;;;11.00;100.00
64844;BME280;51310;52.198;5.422;2022-10-31T00:08:19;101817.94;;;11.01;100.00
64844;BME280;51310;52.198;5.422;2022-10-31T00:10:46;101819.53;;;11.07;100.00
64844;BME280;51310;52.198;5.422;2022-10-31T00:13:13;101823.78;;;11.07;100.00
64844;BME280;51310;52.198;5.422;2022-10-31T00:15:40;101826.94;;;11.04;100.00
64844;BME280;51310;52.198;5.422;2022-10-31T00:18:07;101826.94;;;11.04;100.00
64844;BME280;51310;52.198;5.422;2022-10-31T00:20:35;101824.16;;;11.10;100.00
64844;BME280;51310;52.198;5.422;2022-10-31T00:23:02;101828.13;;;11.15;100.00
64844;BME280;51310;52.198;5.422;2022-10-31T00:25:36;101827.44;;;11.09;100.00
64844;BME280;51310;52.198;5.422;2022-10-31T00:28:06;101827.53;;;11.02;100.00
64844;BME280;51310;52.198;5.422;2022-10-31T00:30:33;101833.41;;;11.01;100.00
64844;BME280;51310;52.198;5.422;2022-10-31T00:32:59;101833.09;;;10.98;100.00
64844;BME280;51310;52.198;5.422;2022-10-31T00:35:25;101830.34;;;10.96;100.00
64844;BME280;51310;52.198;5.422;2022-10-31T00:37:52;101836.13;;;10.86;100.00
64844;BME280;51310;52.198;5.422;2022-10-31T00:40:18;101832.47;;;10.84;100.00
64844;BME280;51310;52.198;5.422;2022-10-31T00:42:43;101839.63;;;10.87;100.00
64844;BME280;51310;52.198;5.422;2022-10-31T00:45:10;101836.56;;;10.75;100.00
64844;BME280;51310;52.198;5.422;2022-10-31T00:47:37;101834.94;;;10.76;100.00
64844;BME280;51310;52.198;5.422;2022-10-31T00:50:05;101839.72;;;10.73;100.00
64844;BME280;51310;52.198;5.422;2022-10-31T00:52:31;101840.31;;;10.70;100.00
64844;BME280;51310;52.198;5.422;2022-10-31T00:54:57;101840.13;;;10.68;100.00
64844;BME280;51310;52.198;5.422;2022-10-31T00:57:23;101835.38;;;10.64;100.00
64844;BME280;51310;52.198;5.422;2022-10-31T00:59:49;101839.03;;;10.66;100.00
64844;BME280;51310;52.198;5.422;2022-10-31T01:02:16;101854.47;;;10.66;100.00
64844;BME280;51310;52.198;5.422;2022-10-31T01:04:42;101854.22;;;10.56;100.00
64844;BME280;51310;52.198;5.422;2022-10-31T01:07:08;101845.56;;;10.56;100.00
64844;BME280;51310;52.198;5.422;2022-10-31T01:09:34;101843.34;;;10.59;100.00
64844;BME280;51310;52.198;5.422;2022-10-31T01:11:59;101835.63;;;10.59;100.00
64844;BME280;51310;52.198;5.422;2022-10-31T01:14:25;101836.41;;;10.51;100.00
64844;BME280;51310;52.198;5.422;2022-10-31T01:16:51;101843.94;;;10.49;100.00
64844;BME280;51310;52.198;5.422;2022-10-31T01:19:17;101847.28;;;10.48;100.00
64844;BME280;51310;52.198;5.422;2022-10-31T01:21:43;101836.69;;;10.38;100.00
64844;BME280;51310;52.198;5.422;2022-10-31T01:24:09;101835.25;;;10.33;100.00
64844;BME280;51310;52.198;5.422;2022-10-31T01:26:35;101835.97;;;10.32;100.00
64844;BME280;51310;52.198;5.422;2022-10-31T01:29:05;101833.06;;;10.21;100.00
64844;BME280;51310;52.198;5.422;2022-10-31T01:31:37;101817.47;;;10.20;100.00
64844;BME280;51310;52.198;5.422;2022-10-31T01:34:03;101817.88;;;10.16;100.00
64844;BME280;51310;52.198;5.422;2022-10-31T01:36:36;101819.34;;;10.14;100.00
64844;BME280;51310;52.198;5.422;2022-10-31T01:39:06;101826.16;;;10.13;100.00
64844;BME280;51310;52.198;5.422;2022-10-31T01:41:44;101823.56;;;10.13;100.00
64844;BME280;51310;52.198;5.422;2022-10-31T01:49:40;101817.34;;;10.11;100.00
64844;BME280;51310;52.198;5.422;2022-10-31T01:54:44;101812.78;;;10.09;100.00
64844;BME280;51310;52.198;5.422;2022-10-31T01:57:14;101823.25;;;10.03;100.00
64844;BME280;51310;52.198;5.422;2022-10-31T01:59:49;101811.69;;;9.99;100.00
64844;BME280;51310;52.198;5.422;2022-10-31T02:02:19;101805.31;;;9.96;100.00
64844;BME280;51310;52.198;5.422;2022-10-31T02:04:46;101814.31;;;9.92;100.00
64844;BME280;51310;52.198;5.422;2022-10-31T02:07:43;101813.78;;;9.88;100.00
64844;BME280;51310;52.198;5.422;2022-10-31T02:10:15;101815.09;;;9.84;100.00
64844;BME280;51310;52.198;5.422;2022-10-31T02:12:41;101818.41;;;9.83;100.00
64844;BME280;51310;52.198;5.422;2022-10-31T02:15:08;101814.56;;;9.79;100.00
64844;BME280;51310;52.198;5.422;2022-10-31T02:17:35;101809.22;;;9.78;100.00
64844;BME280;51310;52.198;5.422;2022-10-31T02:20:18;101812.75;;;9.78;100.00
64844;BME280;51310;52.198;5.422;2022-10-31T02:26:18;101813.84;;;9.73;100.00
64844;BME280;51310;52.198;5.422;2022-10-31T02:29:29;101816.97;;;9.71;100.00
64844;BME280;51310;52.198;5.422;2022-10-31T02:32:28;101811.31;;;9.66;100.00
64844;BME280;51310;52.198;5.422;2022-10-31T02:41:18;101812.44;;;9.54;100.00
64844;BME280;51310;52.198;5.422;2022-10-31T02:46:47;101816.31;;;9.50;100.00
64844;BME280;51310;52.198;5.422;2022-10-31T02:52:38;101818.91;;;9.43;100.00
64844;BME280;51310;52.198;5.422;2022-10-31T02:58:14;101812.16;;;9.36;100.00
64844;BME280;51310;52.198;5.422;2022-10-31T03:04:07;101806.66;;;9.33;100.00
64844;BME280;51310;52.198;5.422;2022-10-31T03:15:32;101811.06;;;9.27;100.00
64844;BME280;51310;52.198;5.422;2022-10-31T03:18:10;101820.59;;;9.28;100.00
64844;BME280;51310;52.198;5.422;2022-10-31T03:20:44;101818.25;;;9.22;100.00
64844;BME280;51310;52.198;5.422;2022-10-31T03:23:16;101814.94;;;9.16;100.00
64844;BME280;51310;52.198;5.422;2022-10-31T03:25:45;101817.91;;;9.12;100.00
64844;BME280;51310;52.198;5.422;2022-10-31T03:28:16;101821.56;;;9.14;100.00
64844;BME280;51310;52.198;5.422;2022-10-31T03:30:46;101821.19;;;9.18;100.00
64844;BME280;51310;52.198;5.422;2022-10-31T03:33:23;101828.50;;;9.15;100.00
64844;BME280;51310;52.198;5.422;2022-10-31T03:35:55;101822.28;;;9.13;100.00
64844;BME280;51310;52.198;5.422;2022-10-31T03:38:23;101821.19;;;9.11;100.00
64844;BME280;51310;52.198;5.422;2022-10-31T03:40:51;101820.28;;;9.11;100.00
64844;BME280;51310;52.198;5.422;2022-10-31T03:43:26;101820.28;;;9.11;100.00
64844;BME280;51310;52.198;5.422;2022-10-31T03:45:56;101821.94;;;9.10;100.00
64844;BME280;51310;52.198;5.422;2022-10-31T03:48:22;101821.03;;;9.10;100.00
64844;BME280;51310;52.198;5.422;2022-10-31T03:51:05;101825.41;;;9.11;100.00
64844;BME280;51310;52.198;5.422;2022-10-31T03:53:47;101823.03;;;9.12;100.00
64844;BME280;51310;52.198;5.422;2022-10-31T03:56:39;101816.44;;;9.07;100.00
64844;BME280;51310;52.198;5.422;2022-10-31T03:59:41;101816.44;;;9.07;100.00
64844;BME280;51310;52.198;5.422;2022-10-31T04:02:22;101816.25;;;9.06;100.00
64844;BME280;51310;52.198;5.422;2022-10-31T04:04:52;101822.31;;;9.06;100.00
64844;BME280;51310;52.198;5.422;2022-10-31T04:07:22;101826.34;;;9.04;100.00
64844;BME280;51310;52.198;5.422;2022-10-31T04:09:53;101822.66;;;9.02;100.00
64844;BME280;51310;52.198;5.422;2022-10-31T04:12:21;101826.91;;;9.01;100.00
64844;BME280;51310;52.198;5.422;2022-10-31T04:14:51;101827.25;;;8.97;100.00
64844;BME280;51310;52.198;5.422;2022-10-31T04:17:22;101822.88;;;8.96;100.00
64844;BME280;51310;52.198;5.422;2022-10-31T04:19:48;101820.13;;;8.95;100.00
64844;BME280;51310;52.198;5.422;2022-10-31T04:22:14;101821.78;;;8.94;100.00
64844;BME280;51310;52.198;5.422;2022-10-31T04:24:41;101831.66;;;8.91;100.00
64844;BME280;51310;52.198;5.422;2022-10-31T04:27:07;101829.13;;;8.84;100.00
64844;BME280;51310;52.198;5.422;2022-10-31T04:29:33;101825.44;;;8.82;100.00
64844;BME280;51310;52.198;5.422;2022-10-31T04:31:58;101817.19;;;8.77;100.00
64844;BME280;51310;52.198;5.422;2022-10-31T04:34:24;101817.91;;;8.76;100.00
64844;BME280;51310;52.198;5.422;2022-10-31T04:36:50;101813.00;;;8.71;100.00
64844;BME280;51310;52.198;5.422;2022-10-31T04:39:16;101822.72;;;8.66;100.00
64844;BME280;51310;52.198;5.422;2022-10-31T04:41:42;101814.06;;;8.66;100.00
64844;BME280;51310;52.198;5.422;2022-10-31T04:44:08;101813.00;;;8.71;100.00
64844;BME280;51310;52.198;5.422;2022-10-31T04:46:33;101817.94;;;8.69;100.00
64844;BME280;51310;52.198;5.422;2022-10-31T04:48:59;101811.34;;;8.64;100.00
64844;BME280;51310;52.198;5.422;2022-10-31T04:51:25;101815.91;;;8.67;100.00
64844;BME280;51310;52.198;5.422;2022-10-31T04:53:51;101811.34;;;8.64;100.00
64844;BME280;51310;52.198;5.422;2022-10-31T04:56:17;101819.03;;;8.64;100.00
64844;BME280;51310;52.198;5.422;2022-10-31T04:58:43;101813.53;;;8.61;100.00
64844;BME280;51310;52.198;5.422;2022-10-31T05:01:08;101808.59;;;8.62;100.00
64844;BME280;51310;52.198;5.422;2022-10-31T05:03:34;101808.03;;;8.65;100.00
64844;BME280;51310;52.198;5.422;2022-10-31T05:06:00;101803.25;;;8.61;100.00
64844;BME280;51310;52.198;5.422;2022-10-31T05:08:26;101797.56;;;8.56;100.00
64844;BME280;51310;52.198;5.422;2022-10-31T05:10:52;101805.81;;;8.61;100.00
64844;BME280;51310;52.198;5.422;2022-10-31T05:13:18;101797.56;;;8.56;100.00
64844;BME280;51310;52.198;5.422;2022-10-31T05:15:44;101802.34;;;8.53;100.00
64844;BME280;51310;52.198;5.422;2022-10-31T05:18:09;101799.94;;;8.55;100.00
64844;BME280;51310;52.198;5.422;2022-10-31T05:20:35;101807.66;;;8.55;100.00
64844;BME280;51310;52.198;5.422;2022-10-31T05:23:01;101797.22;;;8.53;100.00
64844;BME280;51310;52.198;5.422;2022-10-31T05:25:29;101803.97;;;8.53;100.00
64844;BME280;51310;52.198;5.422;2022-10-31T05:27:56;101798.50;;;8.50;100.00
64844;BME280;51310;52.198;5.422;2022-10-31T05:30:30;101798.31;;;8.48;100.00
64844;BME280;51310;52.198;5.422;2022-10-31T05:32:57;101789.34;;;8.52;100.00
64844;BME280;51310;52.198;5.422;2022-10-31T05:35:30;101792.09;;;8.53;100.00
64844;BME280;51310;52.198;5.422;2022-10-31T05:37:58;101792.25;;;8.55;100.00
64844;BME280;51310;52.198;5.422;2022-10-31T05:40:26;101796.13;;;8.51;100.00
64844;BME280;51310;52.198;5.422;2022-10-31T05:42:54;101793.19;;;8.55;100.00
64844;BME280;51310;52.198;5.422;2022-10-31T05:45:22;101791.16;;;8.53;100.00
64844;BME280;51310;52.198;5.422;2022-10-31T05:47:53;101782.34;;;8.51;100.00
64844;BME280;51310;52.198;5.422;2022-10-31T05:50:21;101784.56;;;8.48;100.00
64844;BME280;51310;52.198;5.422;2022-10-31T05:53:02;101786.03;;;8.46;100.00
64844;BME280;51310;52.198;5.422;2022-10-31T05:55:30;101783.09;;;8.43;100.00
64844;BME280;51310;52.198;5.422;2022-10-31T05:57:57;101782.91;;;8.41;100.00
64844;BME280;51310;52.198;5.422;2022-10-31T06:00:24;101777.97;;;8.43;100.00
64844;BME280;51310;52.198;5.422;2022-10-31T06:02:59;101782.50;;;8.38;100.00
64844;BME280;51310;52.198;5.422;2022-10-31T06:05:26;101785.69;;;8.43;100.00
64844;BME280;51310;52.198;5.422;2022-10-31T06:07:51;101778.88;;;8.43;100.00
64844;BME280;51310;52.198;5.422;2022-10-31T06:10:17;101775.56;;;8.44;100.00
64844;BME280;51310;52.198;5.422;2022-10-31T06:12:47;101782.56;;;8.45;100.00
64844;BME280;51310;52.198;5.422;2022-10-31T06:15:13;101770.06;;;8.48;100.00
64844;BME280;51310;52.198;5.422;2022-10-31T06:17:40;101770.06;;;8.48;100.00
64844;BME280;51310;52.198;5.422;2022-10-31T06:20:07;101775.06;;;8.47;100.00
64844;BME280;51310;52.198;5.422;2022-10-31T06:22:33;101772.84;;;8.50;100.00
64844;BME280;51310;52.198;5.422;2022-10-31T06:24:59;101774.66;;;8.51;100.00
64844;BME280;51310;52.198;5.422;2022-10-31T06:27:26;101771.72;;;8.55;100.00
64844;BME280;51310;52.198;5.422;2022-10-31T06:29:52;101781.06;;;8.54;100.00
64844;BME280;51310;52.198;5.422;2022-10-31T06:32:18;101787.50;;;8.58;100.00
64844;BME280;51310;52.198;5.422;2022-10-31T06:34:44;101791.34;;;8.61;100.00
64844;BME280;51310;52.198;5.422;2022-10-31T06:37:13;101793.75;;;8.60;100.00
64844;BME280;51310;52.198;5.422;2022-10-31T06:39:40;101794.84;;;8.69;100.00
64844;BME280;51310;52.198;5.422;2022-10-31T06:42:06;101791.34;;;8.69;100.00
64844;BME280;51310;52.198;5.422;2022-10-31T06:44:32;101788.22;;;8.71;100.00
64844;BME280;51310;52.198;5.422;2022-10-31T06:46:58;101795.53;;;8.68;100.00
64844;BME280;51310;52.198;5.422;2022-10-31T06:49:24;101790.63;;;8.62;100.00
64844;BME280;51310;52.198;5.422;2022-10-31T06:51:50;101795.75;;;8.62;100.00
64844;BME280;51310;52.198;5.422;2022-10-31T06:54:17;101793.72;;;8.67;100.00
64844;BME280;51310;52.198;5.422;2022-10-31T06:56:46;101801.44;;;8.67;100.00
64844;BME280;51310;52.198;5.422;2022-10-31T06:59:15;101800.88;;;8.70;100.00
64844;BME280;51310;52.198;5.422;2022-10-31T07:01:41;101806.38;;;8.73;100.00
64844;BME280;51310;52.198;5.422;2022-10-31T07:04:09;101797.22;;;8.75;100.00
64844;BME280;51310;52.198;5.422;2022-10-31T07:06:35;101799.03;;;8.61;100.00
64844;BME280;51310;52.198;5.422;2022-10-31T07:09:01;101801.59;;;8.61;100.00
64844;BME280;51310;52.198;5.422;2022-10-31T07:11:27;101799.06;;;8.69;100.00
64844;BME280;51310;52.198;5.422;2022-10-31T07:13:53;101802.72;;;8.71;100.00
64844;BME280;51310;52.198;5.422;2022-10-31T07:16:19;101797.94;;;8.67;100.00
64844;BME280;51310;52.198;5.422;2022-10-31T07:18:45;101802.16;;;8.73;100.00
64844;BME280;51310;52.198;5.422;2022-10-31T07:21:10;101797.94;;;8.67;100.00
64844;BME280;51310;52.198;5.422;2022-10-31T07:23:36;101801.06;;;8.71;100.00
64844;BME280;51310;52.198;5.422;2022-10-31T07:26:02;101795.53;;;8.68;100.00
64844;BME280;51310;52.198;5.422;2022-10-31T07:28:28;101796.84;;;8.72;100.00
64844;BME280;51310;52.198;5.422;2022-10-31T07:30:57;101801.06;;;8.71;100.00
64844;BME280;51310;52.198;5.422;2022-10-31T07:33:24;101794.81;;;8.76;100.00
64844;BME280;51310;52.198;5.422;2022-10-31T07:35:53;101801.97;;;8.79;100.00
64844;BME280;51310;52.198;5.422;2022-10-31T07:38:19;101800.13;;;8.85;100.00
64844;BME280;51310;52.198;5.422;2022-10-31T07:40:50;101804.19;;;8.90;100.00
64844;BME280;51310;52.198;5.422;2022-10-31T07:43:18;101808.19;;;8.95;100.00
64844;BME280;51310;52.198;5.422;2022-10-31T07:45:52;101808.34;;;9.04;100.00
64844;BME280;51310;52.198;5.422;2022-10-31T07:48:19;101806.88;;;9.06;100.00
64844;BME280;51310;52.198;5.422;2022-10-31T07:50:45;101806.16;;;9.14;100.00
64844;BME280;51310;52.198;5.422;2022-10-31T07:53:13;101802.31;;;9.18;100.00
64844;BME280;51310;52.198;5.422;2022-10-31T07:55:40;101815.88;;;9.17;100.00
64844;BME280;51310;52.198;5.422;2022-10-31T07:58:14;101809.06;;;9.24;100.00
64844;BME280;51310;52.198;5.422;2022-10-31T08:00:44;101812.53;;;9.32;100.00
64844;BME280;51310;52.198;5.422;2022-10-31T08:03:13;101817.09;;;9.35;100.00
64844;BME280;51310;52.198;5.422;2022-10-31T08:05:42;101822.56;;;9.45;100.00
64844;BME280;51310;52.198;5.422;2022-10-31T08:08:10;101821.63;;;9.52;100.00
64844;BME280;51310;52.198;5.422;2022-10-31T08:10:36;101825.06;;;9.67;100.00
64844;BME280;51310;52.198;5.422;2022-10-31T08:13:09;101825.06;;;9.67;100.00
64844;BME280;51310;52.198;5.422;2022-10-31T08:15:36;101824.13;;;9.73;100.00
64844;BME280;51310;52.198;5.422;2022-10-31T08:18:06;101828.50;;;9.81;100.00
64844;BME280;51310;52.198;5.422;2022-10-31T08:20:32;101821.66;;;9.96;100.00
64844;BME280;51310;52.198;5.422;2022-10-31T08:23:02;101824.16;;;10.03;100.00
64844;BME280;51310;52.198;5.422;2022-10-31T08:25:31;101821.69;;;10.19;100.00
64844;BME280;51310;52.198;5.422;2022-10-31T08:27:59;101820.16;;;10.29;100.00
64844;BME280;51310;52.198;5.422;2022-10-31T08:30:29;101817.38;;;10.41;100.00
64844;BME280;51310;52.198;5.422;2022-10-31T08:33:12;101819.28;;;10.51;100.00
64844;BME280;51310;52.198;5.422;2022-10-31T08:35:41;101814.63;;;10.63;100.00
64844;BME280;51310;52.198;5.422;2022-10-31T08:38:12;101808.84;;;10.73;100.00
64844;BME280;51310;52.198;5.422;2022-10-31T08:40:39;101803.78;;;10.81;100.00
64844;BME280;51310;52.198;5.422;2022-10-31T08:43:13;101814.19;;;10.90;100.00
64844;BME280;51310;52.198;5.422;2022-10-31T08:45:40;101804.00;;;10.99;100.00
64844;BME280;51310;52.198;5.422;2022-10-31T08:48:12;101800.59;;;11.07;100.00
64844;BME280;51310;52.198;5.422;2022-10-31T08:50:39;101807.16;;;11.12;100.00
64844;BME280;51310;52.198;5.422;2022-10-31T08:53:16;101807.75;;;11.09;100.00
64844;BME280;51310;52.198;5.422;2022-10-31T08:55:44;101809.91;;;11.14;100.00
64844;BME280;51310;52.198;5.422;2022-10-31T08:58:17;101804.19;;;11.16;100.00
64844;BME280;51310;52.198;5.422;2022-10-31T09:00:46;101804.09;;;11.07;100.00
64844;BME280;51310;52.198;5.422;2022-10-31T09:03:19;101792.78;;;11.14;100.00
64844;BME280;51310;52.198;5.422;2022-10-31T09:05:46;101792.69;;;11.05;100.00
64844;BME280;51310;52.198;5.422;2022-10-31T09:08:13;101792.28;;;11.09;100.00
64844;BME280;51310;52.198;5.422;2022-10-31T09:10:40;101784.16;;;11.14;100.00
64844;BME280;51310;52.198;5.422;2022-10-31T09:13:11;101785.25;;;11.16;100.00
64844;BME280;51310;52.198;5.422;2022-10-31T09:15:42;101779.25;;;11.24;100.00
64844;BME280;51310;52.198;5.422;2022-10-31T09:18:10;101781.25;;;11.26;100.00
64844;BME280;51310;52.198;5.422;2022-10-31T09:20:38;101770.84;;;11.34;100.00
64844;BME280;51310;52.198;5.422;2022-10-31T09:23:11;101765.03;;;11.43;100.00
64844;BME280;51310;52.198;5.422;2022-10-31T09:25:40;101766.84;;;11.44;100.00
64844;BME280;51310;52.198;5.422;2022-10-31T09:28:10;101758.72;;;11.48;100.00
64844;BME280;51310;52.198;5.422;2022-10-31T09:30:37;101753.81;;;11.59;100.00
64844;BME280;51310;52.198;5.422;2022-10-31T09:33:12;101750.56;;;11.68;100.00
64844;BME280;51310;52.198;5.422;2022-10-31T09:35:39;101754.41;;;11.81;100.00
64844;BME280;51310;52.198;5.422;2022-10-31T09:38:14;101750.28;;;11.90;100.00
64844;BME280;51310;52.198;5.422;2022-10-31T09:43:50;101746.19;;;12.17;100.00
64844;BME280;51310;52.198;5.422;2022-10-31T09:46:46;101738.34;;;12.24;100.00
64844;BME280;51310;52.198;5.422;2022-10-31T09:49:57;101744.78;;;12.36;100.00
64844;BME280;51310;52.198;5.422;2022-10-31T09:52:36;101747.88;;;12.49;100.00
64844;BME280;51310;52.198;5.422;2022-10-31T09:55:30;101751.25;;;12.57;100.00
64844;BME280;51310;52.198;5.422;2022-10-31T09:58:16;101746.00;;;12.73;100.00
64844;BME280;51310;52.198;5.422;2022-10-31T10:00:47;101741.16;;;12.85;100.00
64844;BME280;51310;52.198;5.422;2022-10-31T10:03:33;101747.56;;;12.88;100.00
64844;BME280;51310;52.198;5.422;2022-10-31T10:06:22;101741.03;;;12.92;100.00
64844;BME280;51310;52.198;5.422;2022-10-31T10:08:50;101738.31;;;13.08;100.00
64844;BME280;51310;52.198;5.422;2022-10-31T10:21:09;101728.00;;;13.25;100.00
64844;BME280;51310;52.198;5.422;2022-10-31T10:27:29;101722.59;;;13.40;100.00
64844;BME280;51310;52.198;5.422;2022-10-31T10:32:56;101709.03;;;13.42;100.00
64844;BME280;51310;52.198;5.422;2022-10-31T10:35:55;101707.22;;;13.50;100.00
64844;BME280;51310;52.198;5.422;2022-10-31T10:41:23;101709.94;;;13.60;100.00
64844;BME280;51310;52.198;5.422;2022-10-31T10:43:51;101702.03;;;13.67;100.00
64844;BME280;51310;52.198;5.422;2022-10-31T10:49:50;101695.31;;;13.78;100.00
64844;BME280;51310;52.198;5.422;2022-10-31T10:53:12;101681.16;;;13.83;100.00
64844;BME280;51310;52.198;5.422;2022-10-31T10:56:16;101677.59;;;14.00;100.00
64844;BME280;51310;52.198;5.422;2022-10-31T10:58:57;101657.97;;;14.02;100.00
64844;BME280;51310;52.198;5.422;2022-10-31T11:01:23;101650.16;;;14.11;100.00
64844;BME280;51310;52.198;5.422;2022-10-31T11:03:49;101650.31;;;14.12;100.00
64844;BME280;51310;52.198;5.422;2022-10-31T11:06:22;101644.34;;;14.13;100.00
64844;BME280;51310;52.198;5.422;2022-10-31T11:08:52;101634.13;;;14.24;100.00
64844;BME280;51310;52.198;5.422;2022-10-31T11:11:29;101630.44;;;14.30;100.00
64844;BME280;51310;52.198;5.422;2022-10-31T11:14:15;101619.00;;;14.28;100.00
64844;BME280;51310;52.198;5.422;2022-10-31T11:16:45;101606.53;;;14.24;100.00
64844;BME280;51310;52.198;5.422;2022-10-31T11:19:20;101604.53;;;14.30;100.00
64844;BME280;51310;52.198;5.422;2022-10-31T11:21:49;101596.28;;;14.34;100.00
64844;BME280;51310;52.198;5.422;2022-10-31T11:24:23;101591.06;;;14.43;100.00
64844;BME280;51310;52.198;5.422;2022-10-31T11:27:14;101593.59;;;14.52;100.00
64844;BME280;51310;52.198;5.422;2022-10-31T11:29:41;101587.91;;;14.65;100.00
64844;BME280;51310;52.198;5.422;2022-10-31T11:32:24;101601.63;;;14.83;100.00
64844;BME280;51310;52.198;5.422;2022-10-31T11:35:00;101602.59;;;14.93;100.00
64844;BME280;51310;52.198;5.422;2022-10-31T11:37:32;101604.97;;;15.01;100.00
64844;BME280;51310;52.198;5.422;2022-10-31T11:40:06;101603.03;;;14.98;100.00
64844;BME280;51310;52.198;5.422;2022-10-31T11:42:42;101591.91;;;14.99;100.00
64844;BME280;51310;52.198;5.422;2022-10-31T11:45:28;101580.41;;;15.06;100.00
64844;BME280;51310;52.198;5.422;2022-10-31T11:47:58;101584.38;;;15.02;100.00
64844;BME280;51310;52.198;5.422;2022-10-31T11:50:37;101594.50;;;14.99;100.00
64844;BME280;51310;52.198;5.422;2022-10-31T11:53:18;101586.06;;;15.02;100.00
64844;BME280;51310;52.198;5.422;2022-10-31T11:56:15;101577.66;;;15.04;100.00
64844;BME280;51310;52.198;5.422;2022-10-31T11:58:42;101575.78;;;15.12;100.00
64844;BME280;51310;52.198;5.422;2022-10-31T12:01:30;101557.16;;;14.97;100.00
64844;BME280;51310;52.198;5.422;2022-10-31T12:04:09;101554.47;;;14.87;100.00
64844;BME280;51310;52.198;5.422;2022-10-31T12:06:54;101538.28;;;14.89;100.00
64844;BME280;51310;52.198;5.422;2022-10-31T12:09:23;101531.06;;;14.95;100.00
64844;BME280;51310;52.198;5.422;2022-10-31T12:18:15;101517.47;;;14.98;100.00
64844;BME280;51310;52.198;5.422;2022-10-31T12:21:17;101509.03;;;14.90;100.00
64844;BME280;51310;52.198;5.422;2022-10-31T12:24:18;101498.75;;;14.82;100.00
64844;BME280;51310;52.198;5.422;2022-10-31T12:30:19;101497.53;;;14.78;100.00
64844;BME280;51310;52.198;5.422;2022-10-31T12:36:12;101483.19;;;14.82;100.00
64844;BME280;51310;52.198;5.422;2022-10-31T12:39:19;101481.56;;;14.92;100.00
64844;BME280;51310;52.198;5.422;2022-10-31T12:57:47;101429.97;;;14.95;100.00
64844;BME280;51310;52.198;5.422;2022-10-31T13:00:20;101424.16;;;14.98;100.00
64844;BME280;51310;52.198;5.422;2022-10-31T13:02:55;101428.97;;;15.04;100.00
64844;BME280;51310;52.198;5.422;2022-10-31T13:05:36;101420.81;;;15.09;100.00
64844;BME280;51310;52.198;5.422;2022-10-31T13:08:33;101418.22;;;15.09;100.00
64844;BME280;51310;52.198;5.422;2022-10-31T13:11:20;101413.97;;;15.10;100.00
64844;BME280;51310;52.198;5.422;2022-10-31T13:16:55;101406.44;;;15.13;100.00
64844;BME280;51310;52.198;5.422;2022-10-31T13:19:32;101400.22;;;15.11;100.00
64844;BME280;51310;52.198;5.422;2022-10-31T13:22:20;101394.13;;;15.10;100.00
64844;BME280;51310;52.198;5.422;2022-10-31T13:25:11;101377.38;;;15.07;100.00
64844;BME280;51310;52.198;5.422;2022-10-31T13:28:05;101354.19;;;15.08;100.00
64844;BME280;51310;52.198;5.422;2022-10-31T13:30:40;101361.84;;;15.07;100.00
64844;BME280;51310;52.198;5.422;2022-10-31T13:42:14;101340.56;;;15.01;100.00
64844;BME280;51310;52.198;5.422;2022-10-31T13:44:45;101335.50;;;15.02;100.00
64844;BME280;51310;52.198;5.422;2022-10-31T13:47:28;101331.22;;;15.03;100.00
64844;BME280;51310;52.198;5.422;2022-10-31T13:52:47;101322.44;;;15.11;100.00
64844;BME280;51310;52.198;5.422;2022-10-31T13:55:43;101324.38;;;15.13;100.00
64844;BME280;51310;52.198;5.422;2022-10-31T13:58:29;101314.16;;;15.15;100.00
64844;BME280;51310;52.198;5.422;2022-10-31T14:01:05;101313.88;;;15.22;100.00
64844;BME280;51310;52.198;5.422;2022-10-31T14:03:42;101310.63;;;15.25;100.00
64844;BME280;51310;52.198;5.422;2022-10-31T14:06:11;101304.03;;;15.28;100.00
64844;BME280;51310;52.198;5.422;2022-10-31T14:08:47;101301.84;;;15.33;100.00
64844;BME280;51310;52.198;5.422;2022-10-31T14:11:26;101289.13;;;15.36;100.00
64844;BME280;51310;52.198;5.422;2022-10-31T14:13:55;101285.91;;;15.38;100.00
64844;BME280;51310;52.198;5.422;2022-10-31T14:16:29;101284.06;;;15.37;100.00
64844;BME280;51310;52.198;5.422;2022-10-31T14:19:15;101275.53;;;15.38;100.00
64844;BME280;51310;52.198;5.422;2022-10-31T14:21:45;101276.28;;;15.37;100.00
64844;BME280;51310;52.198;5.422;2022-10-31T14:27:00;101257.09;;;15.35;100.00
64844;BME280;51310;52.198;5.422;2022-10-31T14:29:31;101254.38;;;15.34;100.00
64844;BME280;51310;52.198;5.422;2022-10-31T14:32:24;101257.88;;;15.34;100.00
64844;BME280;51310;52.198;5.422;2022-10-31T14:34:52;101245.81;;;15.35;100.00
64844;BME280;51310;52.198;5.422;2022-10-31T14:44:41;101239.72;;;15.34;100.00
64844;BME280;51310;52.198;5.422;2022-10-31T14:47:52;101242.31;;;15.34;100.00
64844;BME280;51310;52.198;5.422;2022-10-31T14:50:36;101231.03;;;15.34;100.00
64844;BME280;51310;52.198;5.422;2022-10-31T14:53:18;101223.66;;;15.28;100.00
64844;BME280;51310;52.198;5.422;2022-10-31T14:56:02;101228.59;;;15.25;100.00
64844;BME280;51310;52.198;5.422;2022-10-31T14:58:43;101220.53;;;15.22;100.00
64844;BME280;51310;52.198;5.422;2022-10-31T15:01:32;101218.59;;;15.20;100.00
64844;BME280;51310;52.198;5.422;2022-10-31T15:04:20;101217.41;;;15.16;100.00
64844;BME280;51310;52.198;5.422;2022-10-31T15:07:14;101216.28;;;15.12;100.00
64844;BME280;51310;52.198;5.422;2022-10-31T15:09:42;101210.06;;;15.10;100.00
64844;BME280;51310;52.198;5.422;2022-10-31T15:12:31;101204.72;;;15.09;100.00